Time;durP1;ratioP1;P1;durP2;ratioP2;P2;SDS_P1;SDS_P2;PMS_P1;PMS_P2;Temp;Humidity;BMP_temperature;BMP_pressure;BME280_temperature;BME280_humidity;BME280_pressure;Samples;Min_cycle;Max_cycle;Signal;HPM_P1;HPM_P2
2021/03/31 00:01:10;;;;;;;29.90;11.75;;;;;;;-141.50;100.00;63355.56;5010783;28;20056;-78
2021/03/31 00:03:38;;;;;;;23.40;10.85;;;;;;;-141.50;100.00;63355.56;5012081;28;20115;-78
2021/03/31 00:06:04;;;;;;;27.13;11.02;;;;;;;-141.50;100.00;63355.56;5011557;28;20074;-78
2021/03/31 00:08:31;;;;;;;21.92;10.57;;;;;;;-141.50;100.00;63355.56;5011157;28;20052;-77
2021/03/31 00:11:00;;;;;;;21.08;10.48;;;;;;;-141.50;100.00;63355.56;5009812;28;20056;-78
2021/03/31 00:13:27;;;;;;;20.88;10.27;;;;;;;-141.50;100.00;63355.56;5010651;28;20057;-77
2021/03/31 00:15:55;;;;;;;23.10;9.82;;;;;;;-141.50;100.00;63355.56;5008767;28;20057;-77
2021/03/31 00:18:23;;;;;;;25.63;10.40;;;;;;;-141.50;100.00;63355.56;5009789;28;20140;-78
2021/03/31 00:20:50;;;;;;;21.67;9.57;;;;;;;-141.50;100.00;63355.56;5010531;28;20038;-79
2021/03/31 00:23:20;;;;;;;24.70;10.55;;;;;;;-141.50;100.00;63355.56;5010105;28;20100;-78
2021/03/31 00:25:47;;;;;;;23.38;10.15;;;;;;;-141.50;100.00;63355.56;5014470;28;20049;-78
2021/03/31 00:28:13;;;;;;;20.13;9.82;;;;;;;-141.50;100.00;63355.56;5008970;28;20281;-77
2021/03/31 00:30:40;;;;;;;19.80;9.80;;;;;;;-141.50;100.00;63355.56;5009852;28;20049;-76
2021/03/31 00:33:07;;;;;;;22.98;10.20;;;;;;;-141.50;100.00;63355.56;5009446;28;20489;-77
2021/03/31 00:35:33;;;;;;;19.42;9.57;;;;;;;-141.50;100.00;63355.56;5012082;28;20053;-76
2021/03/31 00:37:59;;;;;;;22.92;10.48;;;;;;;-141.50;100.00;63355.56;5014381;28;20046;-77
2021/03/31 00:40:29;;;;;;;23.42;10.23;;;;;;;-141.50;100.00;63355.56;5018849;28;20045;-78
2021/03/31 00:42:55;;;;;;;22.92;10.13;;;;;;;-141.50;100.00;63355.56;5018096;28;20056;-78
2021/03/31 00:45:24;;;;;;;23.73;10.13;;;;;;;-141.50;100.00;63355.56;5016752;28;20052;-77
2021/03/31 00:47:50;;;;;;;19.23;9.35;;;;;;;-141.50;100.00;63355.56;5014573;28;20041;-77
2021/03/31 00:50:18;;;;;;;18.00;9.65;;;;;;;-141.50;100.00;63355.56;5023936;28;20490;-77
2021/03/31 00:52:46;;;;;;;28.27;9.43;;;;;;;-141.50;100.00;63355.56;5025138;28;20041;-77
2021/03/31 00:55:15;;;;;;;20.92;9.95;;;;;;;-141.50;100.00;63355.56;5033928;28;20041;-78
2021/03/31 00:57:41;;;;;;;25.92;9.32;;;;;;;-141.50;100.00;63355.56;5033190;28;20045;-77
2021/03/31 01:00:10;;;;;;;21.38;9.05;;;;;;;-141.50;100.00;63355.56;5028084;28;20421;-77
2021/03/31 01:02:37;;;;;;;20.85;9.85;;;;;;;-141.50;100.00;63355.56;5037378;28;20073;-77
2021/03/31 01:05:12;;;;;;;21.98;9.65;;;;;;;-141.50;100.00;63355.56;5036383;28;20064;-77
2021/03/31 01:07:39;;;;;;;21.67;10.25;;;;;;;-141.50;100.00;63355.56;5031992;28;20060;-76
2021/03/31 01:10:06;;;;;;;21.17;9.88;;;;;;;-141.50;100.00;63355.56;5035111;28;20045;-77
2021/03/31 01:12:46;;;;;;;21.63;10.35;;;;;;;-141.50;100.00;63355.56;5018926;28;20055;-77
2021/03/31 01:15:26;;;;;;;28.35;10.98;;;;;;;-141.50;100.00;63355.56;5036859;28;20049;-77
2021/03/31 01:18:17;;;;;;;24.40;10.68;;;;;;;-141.50;100.00;63355.56;5037339;28;20485;-77
2021/03/31 01:21:01;;;;;;;27.27;9.73;;;;;;;-141.50;100.00;63355.56;5034082;28;20038;-78
2021/03/31 01:24:02;;;;;;;21.88;9.60;;;;;;;-141.50;100.00;63355.56;5014967;28;20050;-77
2021/03/31 01:26:46;;;;;;;22.80;10.30;;;;;;;-141.50;100.00;63355.56;5015480;28;20049;-77
2021/03/31 01:29:20;;;;;;;25.42;10.02;;;;;;;-141.50;100.00;63355.56;5014664;28;20053;-76
2021/03/31 01:31:56;;;;;;;23.77;9.85;;;;;;;-141.50;100.00;63355.56;5014498;28;20049;-76
2021/03/31 01:34:42;;;;;;;22.40;9.60;;;;;;;-141.50;100.00;63355.56;5014402;28;20045;-77
2021/03/31 01:37:15;;;;;;;26.98;9.23;;;;;;;-141.50;100.00;63355.56;5010929;28;20236;-78
2021/03/31 01:39:43;;;;;;;22.90;9.10;;;;;;;-141.50;100.00;63355.56;5012312;28;20045;-78
2021/03/31 01:42:11;;;;;;;20.35;8.88;;;;;;;-141.50;100.00;63355.56;5014148;28;20064;-78
2021/03/31 01:44:40;;;;;;;20.50;8.75;;;;;;;-141.50;100.00;63355.56;5012670;28;20060;-78
2021/03/31 01:47:08;;;;;;;21.60;8.73;;;;;;;-141.50;100.00;63355.56;5013248;28;20483;-78
2021/03/31 01:49:35;;;;;;;19.55;8.80;;;;;;;-141.50;100.00;63355.56;5013653;28;20042;-78
2021/03/31 01:52:04;;;;;;;19.48;7.80;;;;;;;-141.50;100.00;63355.56;5013748;28;20409;-76
2021/03/31 01:54:30;;;;;;;16.00;8.23;;;;;;;-141.50;100.00;63355.56;5013463;28;20046;-77
2021/03/31 01:56:56;;;;;;;24.70;8.63;;;;;;;-141.50;100.00;63355.56;5011671;28;20046;-77
2021/03/31 01:59:24;;;;;;;15.73;7.93;;;;;;;-141.50;100.00;63355.56;5011449;28;20044;-78
2021/03/31 02:01:52;;;;;;;15.52;7.43;;;;;;;-141.50;100.00;63355.56;5011340;28;20049;-77
2021/03/31 02:04:20;;;;;;;19.45;8.10;;;;;;;-141.50;100.00;63355.56;5009844;28;20048;-77
2021/03/31 02:06:47;;;;;;;21.02;8.90;;;;;;;-141.50;100.00;63355.56;5011944;28;20045;-77
2021/03/31 02:09:14;;;;;;;23.63;8.98;;;;;;;-141.50;100.00;63355.56;5011488;28;20134;-77
2021/03/31 02:11:43;;;;;;;19.73;9.40;;;;;;;-141.50;100.00;63355.56;5012700;28;20300;-77
2021/03/31 02:14:13;;;;;;;20.00;8.65;;;;;;;-141.50;100.00;63355.56;5012086;28;20049;-78
2021/03/31 02:16:42;;;;;;;19.67;9.23;;;;;;;-141.50;100.00;63355.56;5012842;28;20050;-77
2021/03/31 02:19:13;;;;;;;19.55;8.63;;;;;;;-141.50;100.00;63355.56;5010333;28;20517;-77
2021/03/31 02:21:41;;;;;;;19.00;8.95;;;;;;;-141.50;100.00;63355.56;5026039;23;20061;-77
2021/03/31 02:24:12;;;;;;;24.10;10.38;;;;;;;-141.50;100.00;63355.56;5009241;28;20426;-78
2021/03/31 02:26:39;;;;;;;23.30;10.27;;;;;;;-141.50;100.00;63355.56;5012662;28;20417;-78
2021/03/31 02:29:05;;;;;;;27.42;10.55;;;;;;;-141.50;100.00;63355.56;5011861;28;20176;-78
2021/03/31 02:31:32;;;;;;;22.40;10.88;;;;;;;-141.50;100.00;63355.56;5006708;28;20041;-78
2021/03/31 02:34:00;;;;;;;23.60;9.68;;;;;;;-141.50;100.00;63355.56;5032516;28;20505;-78
2021/03/31 02:36:38;;;;;;;20.08;10.20;;;;;;;-141.50;100.00;63355.56;5034882;28;20463;-78
2021/03/31 02:39:04;;;;;;;22.02;9.43;;;;;;;-141.50;100.00;63355.56;5031311;28;20059;-77
2021/03/31 02:41:36;;;;;;;25.15;9.50;;;;;;;-141.50;100.00;63355.56;5031782;28;20071;-78
2021/03/31 02:44:04;;;;;;;22.80;9.20;;;;;;;-141.50;100.00;63355.56;5031480;28;20049;-77
2021/03/31 02:46:32;;;;;;;26.52;10.13;;;;;;;-141.50;100.00;63355.56;5032087;28;20063;-78
2021/03/31 02:49:03;;;;;;;22.88;9.95;;;;;;;-141.50;100.00;63355.56;5015279;28;20149;-78
2021/03/31 02:51:33;;;;;;;23.40;9.75;;;;;;;-141.50;100.00;63355.56;5032494;28;20049;-78
2021/03/31 02:54:02;;;;;;;24.17;9.90;;;;;;;-141.50;100.00;63355.56;5032393;28;20395;-79
2021/03/31 02:56:30;;;;;;;30.38;10.50;;;;;;;-141.50;100.00;63355.56;5032585;28;20040;-78
2021/03/31 02:58:59;;;;;;;19.80;9.18;;;;;;;-141.50;100.00;63355.56;5031763;28;20041;-78
2021/03/31 03:01:26;;;;;;;19.45;9.40;;;;;;;-141.50;100.00;63355.56;5043853;28;20052;-79
2021/03/31 03:03:55;;;;;;;22.80;10.27;;;;;;;-141.50;100.00;63355.56;5040700;28;20512;-78
2021/03/31 03:06:23;;;;;;;19.10;9.05;;;;;;;-141.50;100.00;63355.56;5035924;28;20053;-79
2021/03/31 03:08:51;;;;;;;20.13;9.13;;;;;;;-141.50;100.00;63355.56;5034209;28;20194;-79
2021/03/31 03:11:18;;;;;;;17.85;9.35;;;;;;;-141.50;100.00;63355.56;5017164;28;20045;-78
2021/03/31 03:13:48;;;;;;;19.55;9.07;;;;;;;-141.50;100.00;63355.56;5016782;28;20132;-79
2021/03/31 03:16:15;;;;;;;21.23;8.88;;;;;;;-141.50;100.00;63355.56;5015515;28;20064;-77
2021/03/31 03:18:42;;;;;;;22.73;9.40;;;;;;;-141.50;100.00;63355.56;5030854;28;20416;-78
2021/03/31 03:21:10;;;;;;;18.17;8.60;;;;;;;-141.50;100.00;63355.56;5031175;28;20508;-77
2021/03/31 03:23:41;;;;;;;18.55;8.77;;;;;;;-141.50;100.00;63355.56;5032538;28;20045;-78
2021/03/31 03:26:13;;;;;;;19.10;9.45;;;;;;;-141.50;100.00;63355.56;5015009;28;20319;-78
2021/03/31 03:28:41;;;;;;;19.00;9.55;;;;;;;-141.50;100.00;63355.56;5033313;28;20321;-78
2021/03/31 03:31:08;;;;;;;19.73;9.82;;;;;;;-141.50;100.00;63355.56;5032916;28;20037;-78
2021/03/31 03:33:35;;;;;;;25.63;9.23;;;;;;;-141.50;100.00;63355.56;5031837;28;20053;-77
2021/03/31 03:36:09;;;;;;;22.48;9.25;;;;;;;-141.50;100.00;63355.56;5016551;28;20122;-79
2021/03/31 03:38:37;;;;;;;22.55;8.82;;;;;;;-141.50;100.00;63355.56;5034724;28;20056;-77
2021/03/31 03:41:08;;;;;;;19.90;9.43;;;;;;;-141.50;100.00;63355.56;5015155;28;20057;-77
2021/03/31 03:43:37;;;;;;;21.48;8.98;;;;;;;-141.50;100.00;63355.56;5031190;28;20477;-78
2021/03/31 03:46:08;;;;;;;18.00;8.65;;;;;;;-141.50;100.00;63355.56;5013676;28;20160;-78
2021/03/31 03:48:35;;;;;;;20.55;9.02;;;;;;;-141.50;100.00;63355.56;5027124;28;20033;-77
2021/03/31 03:51:09;;;;;;;21.95;8.27;;;;;;;-141.50;100.00;63355.56;5029346;28;20047;-78
2021/03/31 03:53:36;;;;;;;16.83;8.02;;;;;;;-141.50;100.00;63355.56;5031915;28;20417;-79
2021/03/31 03:56:10;;;;;;;19.70;8.13;;;;;;;-141.50;100.00;63355.56;5031411;28;20049;-78
2021/03/31 03:58:37;;;;;;;16.95;8.23;;;;;;;-141.50;100.00;63355.56;5033503;28;20045;-78
2021/03/31 04:01:04;;;;;;;18.85;8.32;;;;;;;-141.50;100.00;63355.56;5044831;28;20042;-79
2021/03/31 04:03:30;;;;;;;23.15;8.73;;;;;;;-141.50;100.00;63355.56;5025956;28;20072;-79
2021/03/31 04:05:57;;;;;;;20.52;8.38;;;;;;;-141.50;100.00;63355.56;5033058;28;20116;-78
2021/03/31 04:08:23;;;;;;;21.17;8.15;;;;;;;-141.50;100.00;63355.56;5031332;28;20049;-79
2021/03/31 04:10:53;;;;;;;20.85;8.27;;;;;;;-141.50;100.00;63355.56;5032496;28;20064;-79
2021/03/31 04:13:21;;;;;;;20.83;8.15;;;;;;;-141.50;100.00;63355.56;5034028;28;20037;-79
2021/03/31 04:15:51;;;;;;;19.25;8.65;;;;;;;-141.50;100.00;63355.56;5033412;28;20045;-78
2021/03/31 04:18:20;;;;;;;20.05;7.68;;;;;;;-141.50;100.00;63355.56;5031730;28;20471;-77
2021/03/31 04:20:49;;;;;;;22.20;8.85;;;;;;;-141.50;100.00;63355.56;5012864;28;20481;-79
2021/03/31 04:23:16;;;;;;;23.80;8.98;;;;;;;-141.50;100.00;63355.56;5013290;28;20048;-79
2021/03/31 04:25:42;;;;;;;21.42;7.90;;;;;;;-141.50;100.00;63355.56;4997904;28;20054;-79
2021/03/31 04:28:11;;;;;;;18.92;8.50;;;;;;;-141.50;100.00;63355.56;5019260;28;20064;-79
2021/03/31 04:30:39;;;;;;;19.25;8.65;;;;;;;-141.50;100.00;63355.56;5011062;28;20048;-77
2021/03/31 04:33:08;;;;;;;19.15;8.55;;;;;;;-141.50;100.00;63355.56;5028917;28;20141;-78
2021/03/31 04:35:35;;;;;;;19.17;8.73;;;;;;;-141.50;100.00;63355.56;5030170;28;20041;-77
2021/03/31 04:38:10;;;;;;;15.40;8.02;;;;;;;-141.50;100.00;63355.56;5029105;28;20611;-78
2021/03/31 04:40:50;;;;;;;19.30;8.80;;;;;;;-141.50;100.00;63355.56;5029584;28;20041;-78
2021/03/31 04:43:19;;;;;;;18.05;7.80;;;;;;;-141.50;100.00;63355.56;5031068;28;20033;-79
2021/03/31 04:45:45;;;;;;;18.48;7.45;;;;;;;-141.50;100.00;63355.56;5029676;28;20574;-78
2021/03/31 04:48:11;;;;;;;21.33;8.15;;;;;;;-141.50;100.00;63355.56;5030578;28;20050;-78
2021/03/31 04:50:39;;;;;;;22.10;8.70;;;;;;;-141.50;100.00;63355.56;5030429;28;20045;-79
2021/03/31 04:53:08;;;;;;;27.95;8.45;;;;;;;-141.50;100.00;63355.56;5030710;28;20049;-77
2021/03/31 04:55:35;;;;;;;19.17;8.77;;;;;;;-141.50;100.00;63355.56;5029490;28;20041;-78
2021/03/31 04:58:02;;;;;;;18.15;8.50;;;;;;;-141.50;100.00;63355.56;5042292;28;20029;-79
2021/03/31 05:00:28;;;;;;;19.55;7.45;;;;;;;-141.50;100.00;63355.56;5033216;28;20073;-79
2021/03/31 05:02:54;;;;;;;18.60;8.13;;;;;;;-141.50;100.00;63355.56;5030353;28;20041;-78
2021/03/31 05:05:20;;;;;;;14.90;7.82;;;;;;;-141.50;100.00;63355.56;5029014;28;20042;-77
2021/03/31 05:07:46;;;;;;;21.00;7.72;;;;;;;-141.50;100.00;63355.56;5028167;28;20044;-77
2021/03/31 05:10:15;;;;;;;19.60;7.68;;;;;;;-141.50;100.00;63355.56;5028035;28;20088;-77
2021/03/31 05:12:41;;;;;;;21.67;7.68;;;;;;;-141.50;100.00;63355.56;5023007;28;20042;-77
2021/03/31 05:15:09;;;;;;;16.58;7.75;;;;;;;-141.50;100.00;63355.56;5019326;28;20046;-78
2021/03/31 05:17:35;;;;;;;22.88;7.93;;;;;;;-141.50;100.00;63355.56;5025125;28;20045;-78
2021/03/31 05:20:06;;;;;;;20.65;7.82;;;;;;;-141.50;100.00;63355.56;5018507;28;20037;-78
2021/03/31 05:22:32;;;;;;;18.25;7.50;;;;;;;-141.50;100.00;63355.56;5021855;28;20056;-77
2021/03/31 05:24:58;;;;;;;21.00;8.02;;;;;;;-141.50;100.00;63355.56;5022781;28;20045;-77
2021/03/31 05:27:24;;;;;;;22.40;7.55;;;;;;;-141.50;100.00;63355.56;5031224;28;20056;-77
2021/03/31 05:29:50;;;;;;;22.95;7.68;;;;;;;-141.50;100.00;63355.56;5006377;28;20424;-79
2021/03/31 05:32:16;;;;;;;17.30;7.65;;;;;;;-141.50;100.00;63355.56;5010226;28;20056;-78
2021/03/31 05:34:42;;;;;;;20.65;7.32;;;;;;;-141.50;100.00;63355.56;5009420;28;20080;-77
2021/03/31 05:37:09;;;;;;;20.20;8.00;;;;;;;-141.50;100.00;63355.56;5020496;28;20049;-79
2021/03/31 05:39:35;;;;;;;17.15;7.25;;;;;;;-141.50;100.00;63355.56;5029715;28;20088;-79
2021/03/31 05:42:02;;;;;;;21.02;7.70;;;;;;;-141.50;100.00;63355.56;5030422;28;20041;-78
2021/03/31 05:44:30;;;;;;;16.58;7.60;;;;;;;-141.50;100.00;63355.56;5030076;28;20054;-78
2021/03/31 05:46:57;;;;;;;21.65;7.93;;;;;;;-141.50;100.00;63355.56;5047028;28;20148;-80
2021/03/31 05:49:25;;;;;;;18.85;7.18;;;;;;;-141.50;100.00;63355.56;5032954;28;20067;-80
2021/03/31 05:51:52;;;;;;;17.92;7.30;;;;;;;-141.50;100.00;63355.56;5049967;28;20061;-78
2021/03/31 05:54:18;;;;;;;20.80;8.05;;;;;;;-141.50;100.00;63355.56;5050399;28;20049;-78
2021/03/31 05:56:45;;;;;;;19.48;8.25;;;;;;;-141.50;100.00;63355.56;5053212;28;20060;-79
2021/03/31 05:59:12;;;;;;;18.65;8.27;;;;;;;-141.50;100.00;63355.56;5049045;28;20055;-79
2021/03/31 06:01:39;;;;;;;19.30;8.18;;;;;;;-141.50;100.00;63355.56;5049706;28;20298;-79
2021/03/31 06:04:08;;;;;;;18.63;8.20;;;;;;;-141.50;100.00;63355.56;5049932;28;20451;-78
2021/03/31 06:06:34;;;;;;;20.63;8.02;;;;;;;-141.50;100.00;63355.56;5039419;28;20052;-79
2021/03/31 06:09:05;;;;;;;15.88;7.55;;;;;;;-141.50;100.00;63355.56;5035171;28;20099;-78
2021/03/31 06:11:57;;;;;;;18.33;8.13;;;;;;;-141.50;100.00;63355.56;5031140;28;20103;-78
2021/03/31 06:14:31;;;;;;;19.25;8.25;;;;;;;-141.50;100.00;63355.56;5032632;28;20136;-78
2021/03/31 06:17:12;;;;;;;20.17;8.43;;;;;;;-141.50;100.00;63355.56;5032444;28;20064;-78
2021/03/31 06:19:40;;;;;;;26.10;8.35;;;;;;;-141.50;100.00;63355.56;5031966;28;20056;-78
2021/03/31 06:22:26;;;;;;;14.98;7.30;;;;;;;-141.50;100.00;63355.56;5031131;28;20108;-78
2021/03/31 06:25:28;;;;;;;16.60;6.72;;;;;;;-141.50;100.00;63355.56;5033855;28;20053;-78
2021/03/31 06:27:59;;;;;;;20.50;6.47;;;;;;;-141.50;100.00;63355.56;5022970;28;20513;-78
2021/03/31 06:30:28;;;;;;;18.35;7.03;;;;;;;-141.50;100.00;63355.56;5031456;28;20076;-78
2021/03/31 06:32:55;;;;;;;16.52;7.55;;;;;;;-141.50;100.00;63355.56;5032919;28;20073;-78
2021/03/31 06:35:27;;;;;;;18.23;6.50;;;;;;;-141.50;100.00;63355.56;5033170;28;20065;-79
2021/03/31 06:38:08;;;;;;;19.85;6.60;;;;;;;-141.50;100.00;63355.56;5019260;28;20046;-78
2021/03/31 06:40:47;;;;;;;16.95;6.82;;;;;;;-141.50;100.00;63355.56;5012503;28;20478;-78
2021/03/31 06:43:31;;;;;;;16.83;6.97;;;;;;;-141.50;100.00;63355.56;5012335;28;20100;-77
2021/03/31 06:48:26;;;;;;;18.70;6.32;;;;;;;-141.50;100.00;63355.56;5027174;28;20049;-77
2021/03/31 06:50:53;;;;;;;17.75;6.55;;;;;;;-141.50;100.00;63355.56;5025158;28;20505;-78
2021/03/31 06:53:27;;;;;;;20.50;7.18;;;;;;;-141.50;100.00;63355.56;5039129;28;20053;-78
2021/03/31 06:56:06;;;;;;;20.10;7.32;;;;;;;-141.50;100.00;63355.56;5014756;28;20049;-78
2021/03/31 06:58:33;;;;;;;23.35;6.80;;;;;;;-141.50;100.00;63355.56;5012308;28;20046;-78
2021/03/31 07:00:59;;;;;;;16.02;5.82;;;;;;;-141.50;100.00;63355.56;5020208;28;20503;-78
2021/03/31 07:03:27;;;;;;;17.63;5.88;;;;;;;-141.50;100.00;63355.56;5039801;28;20046;-79
2021/03/31 07:05:53;;;;;;;20.15;5.53;;;;;;;-141.50;100.00;63355.56;5030584;28;20615;-77
2021/03/31 07:08:19;;;;;;;12.80;5.47;;;;;;;-141.50;100.00;63355.56;5030654;28;20103;-77
2021/03/31 07:10:55;;;;;;;19.42;6.15;;;;;;;-141.50;100.00;63355.56;5031881;28;20045;-78
2021/03/31 07:13:31;;;;;;;14.15;5.47;;;;;;;-141.50;100.00;63355.56;5030423;28;20045;-78
2021/03/31 07:15:59;;;;;;;22.25;5.43;;;;;;;-141.50;100.00;63355.56;5038970;28;20050;-78
2021/03/31 07:18:27;;;;;;;12.63;5.20;;;;;;;-141.50;100.00;63355.56;5029774;28;20057;-79
2021/03/31 07:20:54;;;;;;;11.20;4.88;;;;;;;-141.50;100.00;63355.56;5020152;28;20485;-79
2021/03/31 07:23:21;;;;;;;14.00;5.00;;;;;;;-141.50;100.00;63355.56;5030301;28;20045;-77
2021/03/31 07:25:48;;;;;;;15.90;5.38;;;;;;;-141.50;100.00;63355.56;5031454;28;20405;-81
2021/03/31 07:28:20;;;;;;;18.05;5.30;;;;;;;-141.50;100.00;63355.56;5029731;28;20049;-78
2021/03/31 07:30:48;;;;;;;14.30;5.13;;;;;;;-141.50;100.00;63355.56;5029978;28;20056;-78
2021/03/31 07:33:21;;;;;;;16.02;5.43;;;;;;;-141.50;100.00;63355.56;5030686;28;20172;-78
2021/03/31 07:35:49;;;;;;;15.30;5.43;;;;;;;-141.50;100.00;63355.56;5030883;28;20488;-77
2021/03/31 07:38:22;;;;;;;20.75;6.95;;;;;;;-141.50;100.00;63355.56;5009996;28;20136;-78
2021/03/31 07:40:50;;;;;;;12.60;6.15;;;;;;;-141.50;100.00;63355.56;5047126;28;20128;-81
2021/03/31 07:43:25;;;;;;;27.42;6.97;;;;;;;-141.50;100.00;63355.56;5029670;28;20038;-77
2021/03/31 07:45:57;;;;;;;14.80;6.28;;;;;;;-141.50;100.00;63355.56;5030609;28;20069;-77
2021/03/31 07:48:24;;;;;;;20.17;6.88;;;;;;;-141.50;100.00;63355.56;5028902;28;20132;-77
2021/03/31 07:50:50;;;;;;;16.90;6.95;;;;;;;-141.50;100.00;63355.56;5029287;28;20046;-77
2021/03/31 07:53:16;;;;;;;22.90;6.97;;;;;;;-141.50;100.00;63355.56;5029599;28;20079;-77
2021/03/31 07:55:47;;;;;;;18.55;7.15;;;;;;;-141.50;100.00;63355.56;5012435;28;20408;-77
2021/03/31 07:58:13;;;;;;;19.92;6.82;;;;;;;-141.50;100.00;63355.56;5030452;28;20400;-77
2021/03/31 08:00:50;;;;;;;18.10;6.43;;;;;;;-141.50;100.00;63355.56;5028348;28;20053;-77
2021/03/31 08:03:21;;;;;;;14.65;6.13;;;;;;;-141.50;100.00;63355.56;5028917;28;20092;-77
2021/03/31 08:06:12;;;;;;;23.98;6.43;;;;;;;-141.50;100.00;63355.56;5022903;28;20140;-77
2021/03/31 08:08:54;;;;;;;21.20;6.35;;;;;;;-141.50;100.00;63355.56;5025797;28;20116;-77
2021/03/31 08:11:36;;;;;;;24.27;6.65;;;;;;;-141.50;100.00;63355.56;5018854;28;20448;-76
2021/03/31 08:14:11;;;;;;;22.30;6.65;;;;;;;-141.50;100.00;63355.56;5019598;28;20072;-78
2021/03/31 08:16:41;;;;;;;19.00;6.37;;;;;;;-141.50;100.00;63355.56;5023127;28;20050;-76
2021/03/31 08:19:16;;;;;;;14.60;5.40;;;;;;;-141.50;100.00;63355.56;5018187;28;20280;-76
2021/03/31 08:21:46;;;;;;;19.75;5.10;;;;;;;-141.50;100.00;63355.56;5038774;23;20428;-76
2021/03/31 08:24:17;;;;;;;15.15;4.85;;;;;;;-141.50;100.00;63355.56;5025302;28;20037;-76
2021/03/31 08:26:51;;;;;;;12.93;5.05;;;;;;;-141.50;100.00;63355.56;5030834;28;20440;-77
2021/03/31 08:29:17;;;;;;;22.60;5.28;;;;;;;-141.50;100.00;63355.56;5026452;28;20045;-77
2021/03/31 08:31:54;;;;;;;12.75;4.80;;;;;;;-141.50;100.00;63355.56;5027336;28;20049;-76
2021/03/31 08:34:23;;;;;;;19.20;5.30;;;;;;;-141.50;100.00;63355.56;5027711;28;20275;-74
2021/03/31 08:36:50;;;;;;;17.55;5.13;;;;;;;-141.50;100.00;63355.56;5030145;28;20045;-75
2021/03/31 08:39:16;;;;;;;14.85;4.82;;;;;;;-141.50;100.00;63355.56;5029961;28;20046;-75
2021/03/31 08:41:47;;;;;;;17.45;4.70;;;;;;;-141.50;100.00;63355.56;5030500;28;20045;-75
2021/03/31 08:44:32;;;;;;;12.40;4.43;;;;;;;-141.50;100.00;63355.56;5029344;28;20096;-77
2021/03/31 08:47:09;;;;;;;14.60;4.47;;;;;;;-141.50;100.00;63355.56;5030170;28;20053;-76
2021/03/31 08:49:40;;;;;;;14.77;4.80;;;;;;;-141.50;100.00;63355.56;5030349;28;20041;-75
2021/03/31 08:52:11;;;;;;;17.63;5.05;;;;;;;-141.50;100.00;63355.56;5029161;28;20045;-77
2021/03/31 08:54:43;;;;;;;15.13;5.18;;;;;;;-141.50;100.00;63355.56;5028010;28;20493;-77
2021/03/31 08:57:11;;;;;;;11.60;4.93;;;;;;;-141.50;100.00;63355.56;5030721;28;20052;-77
2021/03/31 08:59:39;;;;;;;14.40;5.57;;;;;;;-141.50;100.00;63355.56;5031449;28;20057;-78
2021/03/31 09:02:07;;;;;;;11.68;4.75;;;;;;;-141.50;100.00;63355.56;5032257;28;20039;-77
2021/03/31 09:04:50;;;;;;;14.48;5.22;;;;;;;-141.50;100.00;63355.56;5032251;28;20048;-77
2021/03/31 09:07:17;;;;;;;11.07;4.40;;;;;;;-141.50;100.00;63355.56;5031751;28;20344;-78
2021/03/31 09:09:45;;;;;;;13.13;4.90;;;;;;;-141.50;100.00;63355.56;5033602;28;20045;-78
2021/03/31 09:12:17;;;;;;;13.25;5.30;;;;;;;-141.50;100.00;63355.56;5037376;28;20041;-78
2021/03/31 09:14:46;;;;;;;11.93;5.32;;;;;;;-141.50;100.00;63355.56;5034281;28;20057;-79
2021/03/31 09:17:30;;;;;;;11.27;5.07;;;;;;;-141.50;100.00;63355.56;5035440;28;20156;-79
2021/03/31 09:20:05;;;;;;;13.90;6.45;;;;;;;-141.50;100.00;63355.56;5034864;28;20048;-77
2021/03/31 09:22:32;;;;;;;10.13;5.00;;;;;;;-141.50;100.00;63355.56;5032679;28;20519;-78
2021/03/31 09:25:00;;;;;;;13.85;6.47;;;;;;;-141.50;100.00;63355.56;5032467;28;20099;-78
2021/03/31 09:27:32;;;;;;;12.18;5.55;;;;;;;-141.50;100.00;63355.56;5041939;28;20112;-78
2021/03/31 09:30:01;;;;;;;11.50;5.80;;;;;;;-141.50;100.00;63355.56;5023765;28;20053;-77
2021/03/31 09:32:36;;;;;;;12.63;5.30;;;;;;;-141.50;100.00;63355.56;5041203;28;20041;-77
2021/03/31 09:35:10;;;;;;;16.63;5.10;;;;;;;-141.50;100.00;63355.56;5032441;28;20205;-77
2021/03/31 09:37:56;;;;;;;10.38;5.80;;;;;;;-141.50;100.00;63355.56;5032953;28;20119;-77
2021/03/31 09:40:37;;;;;;;16.50;5.03;;;;;;;-141.50;100.00;63355.56;5042040;28;20045;-77
2021/03/31 09:43:08;;;;;;;11.60;5.32;;;;;;;-141.50;100.00;63355.56;5018864;28;20136;-75
2021/03/31 09:45:35;;;;;;;12.32;5.30;;;;;;;-141.50;100.00;63355.56;5031763;28;20048;-75
2021/03/31 09:48:03;;;;;;;11.18;5.07;;;;;;;-141.50;100.00;63355.56;5034250;28;20171;-76
2021/03/31 09:50:33;;;;;;;13.38;5.53;;;;;;;-141.50;100.00;63355.56;5032065;28;20050;-75
2021/03/31 09:53:01;;;;;;;16.23;5.03;;;;;;;-141.50;100.00;63355.56;5030555;28;20048;-76
2021/03/31 09:55:28;;;;;;;12.82;4.90;;;;;;;-141.50;100.00;63355.56;5032234;28;20088;-75
2021/03/31 09:57:55;;;;;;;9.05;5.07;;;;;;;-141.50;100.00;63355.56;5031521;28;20053;-75
2021/03/31 10:00:24;;;;;;;13.50;5.47;;;;;;;-141.50;100.00;63355.56;5031303;28;20053;-75
2021/03/31 10:02:52;;;;;;;7.40;5.32;;;;;;;-141.50;100.00;63355.56;5030667;28;20498;-76
2021/03/31 10:05:20;;;;;;;12.90;5.60;;;;;;;-141.50;100.00;63355.56;5030396;28;20049;-76
2021/03/31 10:08:02;;;;;;;11.30;5.25;;;;;;;-141.50;100.00;63355.56;5031380;28;20497;-78
2021/03/31 10:10:49;;;;;;;12.00;5.55;;;;;;;-141.50;100.00;63355.56;5031268;28;20045;-76
2021/03/31 10:13:18;;;;;;;10.73;4.85;;;;;;;-141.50;100.00;63355.56;5031370;28;20103;-76
2021/03/31 10:15:54;;;;;;;9.25;4.82;;;;;;;-141.50;100.00;63355.56;5025730;28;20050;-77
2021/03/31 10:18:20;;;;;;;18.90;5.95;;;;;;;-141.50;100.00;63355.56;5029843;28;20060;-76
2021/03/31 10:20:48;;;;;;;13.13;6.93;;;;;;;-141.50;100.00;63355.56;5030336;28;20416;-78
2021/03/31 10:23:36;;;;;;;19.15;6.15;;;;;;;-141.50;100.00;63355.56;5010169;28;20081;-77
2021/03/31 10:26:23;;;;;;;11.63;6.40;;;;;;;-141.50;100.00;63355.56;5012151;28;20050;-77
2021/03/31 10:28:58;;;;;;;14.63;6.05;;;;;;;-141.50;100.00;63355.56;5024870;28;20053;-76
2021/03/31 10:31:46;;;;;;;10.70;6.05;;;;;;;-141.50;100.00;63355.56;5020748;28;20041;-77
2021/03/31 12:23:05;;;;;;;6.50;4.22;;;;;;;-141.50;100.00;63355.56;5027848;28;20057;-75
2021/03/31 12:25:33;;;;;;;12.18;5.68;;;;;;;-141.50;100.00;63355.56;5029253;28;20080;-75
2021/03/31 12:28:00;;;;;;;10.00;4.35;;;;;;;-141.50;100.00;63355.56;5020905;28;20046;-77
2021/03/31 12:30:27;;;;;;;9.48;4.80;;;;;;;-141.50;100.00;63355.56;5027499;28;20405;-76
2021/03/31 12:32:53;;;;;;;8.70;4.82;;;;;;;-141.50;100.00;63355.56;5028456;28;20037;-77
2021/03/31 12:35:21;;;;;;;11.20;4.60;;;;;;;-141.50;100.00;63355.56;5028891;28;20429;-77
2021/03/31 12:37:47;;;;;;;10.50;4.68;;;;;;;-141.50;100.00;63355.56;5028646;28;20056;-75
2021/03/31 12:40:14;;;;;;;10.27;5.07;;;;;;;-141.50;100.00;63355.56;5028226;28;20037;-74
2021/03/31 12:42:41;;;;;;;8.73;4.80;;;;;;;-141.50;100.00;63355.56;5028672;28;20444;-76
2021/03/31 12:45:08;;;;;;;9.20;5.10;;;;;;;-141.50;100.00;63355.56;5020769;28;20111;-76
2021/03/31 12:47:39;;;;;;;6.47;4.30;;;;;;;-141.50;100.00;63355.56;5036707;28;20501;-75
2021/03/31 12:50:07;;;;;;;11.30;5.72;;;;;;;-141.50;100.00;63355.56;5025795;28;20073;-75
2021/03/31 12:52:47;;;;;;;8.65;6.00;;;;;;;-141.50;100.00;63355.56;5022755;28;20412;-77
2021/03/31 12:55:17;;;;;;;26.55;7.53;;;;;;;-141.50;100.00;63355.56;5019293;28;20447;-76
2021/03/31 12:57:43;;;;;;;116.63;9.80;;;;;;;-141.50;100.00;63355.56;5022988;28;20053;-76
2021/03/31 13:00:10;;;;;;;15.02;6.55;;;;;;;-141.50;100.00;63355.56;5022651;28;20049;-75
2021/03/31 13:02:56;;;;;;;25.17;7.63;;;;;;;-141.50;100.00;63355.56;5023632;28;20129;-76
2021/03/31 13:05:22;;;;;;;14.13;5.93;;;;;;;-141.50;100.00;63355.56;5023925;28;20050;-77
2021/03/31 13:07:49;;;;;;;32.38;7.55;;;;;;;-141.50;100.00;63355.56;5026646;28;20449;-77